createdAt,value
2018-04-11T00:00:37.913Z,0
2018-04-11T00:01:38.159Z,0
2018-04-11T00:02:37.952Z,0
2018-04-11T00:03:37.900Z,0
2018-04-11T00:04:38.222Z,0
2018-04-11T00:05:38.138Z,0
2018-04-11T00:06:38.161Z,0
2018-04-11T00:07:37.891Z,0
2018-04-11T00:08:37.919Z,0
2018-04-11T00:09:38.139Z,0
2018-04-11T00:10:37.895Z,0
2018-04-11T00:11:37.872Z,0
2018-04-11T00:12:38.124Z,0
2018-04-11T00:13:38.115Z,0
2018-04-11T00:14:37.866Z,0
2018-04-11T00:15:38.103Z,0
2018-04-11T00:16:37.858Z,0
2018-04-11T00:17:37.853Z,0
2018-04-11T00:18:37.870Z,0
2018-04-11T00:19:38.087Z,0
2018-04-11T00:20:38.117Z,0
2018-04-11T00:21:38.113Z,0
2018-04-11T00:22:37.654Z,0
2018-04-11T00:23:38.072Z,0
2018-04-11T00:24:37.626Z,0
2018-04-11T00:25:37.811Z,0
2018-04-11T00:26:37.836Z,0
2018-04-11T00:27:37.819Z,0
2018-04-11T00:28:38.065Z,0
2018-04-11T00:29:37.818Z,0
2018-04-11T00:30:37.815Z,0
2018-04-11T00:31:38.099Z,0
2018-04-11T00:32:38.113Z,0
2018-04-11T00:33:38.261Z,0
2018-04-11T00:34:37.837Z,0
2018-04-11T00:35:38.028Z,0
2018-04-11T00:36:37.530Z,0
2018-04-11T00:37:37.767Z,0
2018-04-11T00:38:37.759Z,0
2018-04-11T00:39:37.774Z,0
2018-04-11T00:40:37.520Z,0
2018-04-11T00:41:37.761Z,0
2018-04-11T00:42:37.242Z,0
2018-04-11T00:43:37.765Z,0
2018-04-11T00:44:37.747Z,0
2018-04-11T00:45:37.738Z,0
2018-04-11T00:46:37.733Z,0
2018-04-11T00:47:37.736Z,0
2018-04-11T00:48:43.265Z,0
2018-04-11T00:49:37.469Z,0
2018-04-11T00:50:37.967Z,0
2018-04-11T00:51:37.992Z,0
2018-04-11T00:52:37.727Z,0
2018-04-11T00:53:37.717Z,0
2018-04-11T00:54:37.725Z,0
2018-04-11T00:55:37.748Z,0
2018-04-11T00:56:37.942Z,0
2018-04-11T00:57:37.930Z,0
2018-04-11T00:58:37.694Z,0
2018-04-11T00:59:37.682Z,0
2018-04-11T01:00:37.924Z,0
2018-04-11T01:01:37.663Z,0
2018-04-11T01:02:37.934Z,0
2018-04-11T01:03:37.642Z,0
2018-04-11T01:04:37.989Z,0
2018-04-11T01:05:37.648Z,0
2018-04-11T01:06:37.648Z,0
2018-04-11T01:07:37.651Z,0
2018-04-11T01:08:37.632Z,0
2018-04-11T01:09:37.885Z,0
2018-04-11T01:10:37.369Z,0
2018-04-11T01:11:37.613Z,0
2018-04-11T01:12:37.109Z,0
2018-04-11T01:13:37.606Z,0
2018-04-11T01:14:37.860Z,0
2018-04-11T01:15:37.595Z,0
2018-04-11T01:16:37.338Z,0
2018-04-11T01:17:37.361Z,0
2018-04-11T01:18:38.941Z,0
2018-04-11T01:19:37.335Z,0
2018-04-11T01:20:37.636Z,0
2018-04-11T01:21:37.329Z,0
2018-04-11T01:22:37.860Z,0
2018-04-11T01:23:37.824Z,0
2018-04-11T01:24:37.816Z,0
2018-04-11T01:25:37.990Z,0
2018-04-11T01:26:37.821Z,0
2018-04-11T01:27:37.541Z,0
2018-04-11T01:28:37.545Z,0
2018-04-11T01:29:37.803Z,0
2018-04-11T01:30:37.809Z,0
2018-04-11T01:31:37.805Z,0
2018-04-11T01:32:37.542Z,0
2018-04-11T01:33:37.276Z,0
2018-04-11T01:34:37.521Z,0
2018-04-11T01:35:37.283Z,0
2018-04-11T01:36:37.516Z,0
2018-04-11T01:37:36.998Z,0
2018-04-11T01:38:37.502Z,0
2018-04-11T01:39:37.483Z,0
2018-04-11T01:40:37.746Z,0
2018-04-11T01:41:37.515Z,0
2018-04-11T01:42:37.727Z,0
2018-04-11T01:43:37.483Z,0
2018-04-11T01:44:37.733Z,0
2018-04-11T01:45:37.729Z,0
2018-04-11T01:46:37.714Z,0
2018-04-11T01:47:37.733Z,0
2018-04-11T01:48:37.711Z,0
2018-04-11T01:49:41.136Z,0
2018-04-11T01:50:37.702Z,0
2018-04-11T01:51:37.698Z,0
2018-04-11T01:52:37.700Z,0
2018-04-11T01:53:37.429Z,0
2018-04-11T01:54:37.415Z,0
2018-04-11T01:55:37.664Z,0
2018-04-11T01:56:37.182Z,0
2018-04-11T01:57:37.655Z,0
2018-04-11T01:58:37.670Z,0
2018-04-11T01:59:37.652Z,0
2018-04-11T02:00:37.647Z,0
2018-04-11T02:01:37.147Z,0
2018-04-11T02:02:37.131Z,0
2018-04-11T02:03:37.654Z,0
2018-04-11T02:04:39.533Z,0
2018-04-11T02:05:37.377Z,0
2018-04-11T02:06:37.616Z,0
2018-04-11T02:07:37.364Z,0
2018-04-11T02:08:37.388Z,0
2018-04-11T02:09:37.624Z,0
2018-04-11T02:10:37.600Z,0
2018-04-11T02:11:36.843Z,0
2018-04-11T02:12:37.101Z,0
2018-04-11T02:13:37.348Z,0
2018-04-11T02:14:37.075Z,0
2018-04-11T02:15:37.068Z,0
2018-04-11T02:16:37.075Z,0
2018-04-11T02:17:37.559Z,0
2018-04-11T02:18:37.318Z,0
2018-04-11T02:19:41.072Z,0
2018-04-11T02:20:37.049Z,0
2018-04-11T02:21:37.304Z,0
2018-04-11T02:22:37.545Z,0
2018-04-11T02:23:37.542Z,0
2018-04-11T02:24:37.283Z,0
2018-04-11T02:25:37.013Z,0
2018-04-11T02:26:37.262Z,0
2018-04-11T02:27:37.511Z,0
2018-04-11T02:28:37.495Z,0
2018-04-11T02:29:37.265Z,0
2018-04-11T02:30:37.244Z,0
2018-04-11T02:31:37.243Z,0
2018-04-11T02:32:37.513Z,0
2018-04-11T02:33:37.241Z,0
2018-04-11T02:34:36.725Z,0
2018-04-11T02:35:37.475Z,0
2018-04-11T02:36:37.489Z,0
2018-04-11T02:37:37.464Z,0
2018-04-11T02:38:37.217Z,0
2018-04-11T02:39:37.446Z,0
2018-04-11T02:40:37.448Z,0
2018-04-11T02:41:37.457Z,0
2018-04-11T02:42:37.197Z,0
2018-04-11T02:43:37.448Z,0
2018-04-11T02:44:37.438Z,0
2018-04-11T02:45:37.189Z,0
2018-04-11T02:46:37.162Z,0
2018-04-11T02:47:36.925Z,0
2018-04-11T02:48:37.161Z,0
2018-04-11T02:49:37.406Z,0
2018-04-11T02:50:37.693Z,0
2018-04-11T02:51:37.392Z,0
2018-04-11T02:52:37.130Z,0
2018-04-11T02:53:37.159Z,0
2018-04-11T02:54:36.893Z,0
2018-04-11T02:55:37.376Z,0
2018-04-11T02:56:36.902Z,0
2018-04-11T02:57:37.131Z,0
2018-04-11T02:58:37.357Z,0
2018-04-11T02:59:37.382Z,0
2018-04-11T03:00:37.358Z,0
2018-04-11T03:01:37.116Z,0
2018-04-11T03:02:36.839Z,0
2018-04-11T03:03:37.351Z,0
2018-04-11T03:04:37.079Z,0
2018-04-11T03:05:37.322Z,0
2018-04-11T03:06:37.325Z,0
2018-04-11T03:07:36.847Z,0
2018-04-11T03:08:37.307Z,0
2018-04-11T03:09:36.798Z,0
2018-04-11T03:10:37.305Z,0
2018-04-11T03:11:37.336Z,0
2018-04-11T03:12:37.033Z,0
2018-04-11T03:13:37.029Z,0
2018-04-11T03:14:37.032Z,0
2018-04-11T03:15:36.770Z,0
2018-04-11T03:16:37.271Z,0
2018-04-11T03:17:37.006Z,0
2018-04-11T03:18:36.753Z,0
2018-04-11T03:19:37.245Z,0
2018-04-11T03:20:40.749Z,0
2018-04-11T03:21:37.232Z,0
2018-04-11T03:22:37.227Z,0
2018-04-11T03:23:36.992Z,0
2018-04-11T03:24:37.225Z,0
2018-04-11T03:25:36.977Z,0
2018-04-11T03:26:36.709Z,0
2018-04-11T03:27:37.205Z,0
2018-04-11T03:28:36.939Z,0
2018-04-11T03:29:37.189Z,0
2018-04-11T03:37:34.307Z,0
2018-04-11T03:37:57.541Z,0
2018-04-11T03:38:57.534Z,0
2018-04-11T03:39:57.289Z,0
2018-04-11T03:40:57.278Z,0
2018-04-11T03:41:57.498Z,0
2018-04-11T03:42:57.244Z,0
2018-04-11T03:43:57.232Z,0
2018-04-11T03:44:57.485Z,0
2018-04-11T03:45:57.469Z,0
2018-04-11T03:46:57.460Z,0
2018-04-11T03:47:56.966Z,0
2018-04-11T03:48:56.824Z,0
2018-04-11T03:49:57.197Z,0
2018-04-11T03:50:56.943Z,0
2018-04-11T03:51:57.183Z,0
2018-04-11T03:53:00.707Z,0
2018-04-11T03:53:57.181Z,0
2018-04-11T03:54:57.441Z,0
2018-04-11T03:55:57.401Z,0
2018-04-11T03:56:57.404Z,0
2018-04-11T03:57:56.900Z,0
2018-04-11T03:58:56.897Z,0
2018-04-11T03:59:57.150Z,0
2018-04-11T04:00:57.125Z,0
2018-04-11T04:01:57.379Z,0
2018-04-11T04:02:56.880Z,0
2018-04-11T04:03:57.377Z,0
2018-04-11T04:04:57.373Z,0
2018-04-11T04:05:57.349Z,0
2018-04-11T04:06:57.092Z,0
2018-04-11T04:07:58.400Z,4
2018-04-11T04:08:57.354Z,4
2018-04-11T04:09:57.358Z,4
2018-04-11T04:10:57.317Z,0
2018-04-11T04:11:57.070Z,4
2018-04-11T04:12:57.344Z,4
2018-04-11T04:13:57.452Z,4
2018-04-11T04:14:57.076Z,4
2018-04-11T04:15:57.303Z,4
2018-04-11T04:16:56.799Z,8
2018-04-11T04:17:57.296Z,8
2018-04-11T04:18:57.280Z,12
2018-04-11T04:19:57.129Z,12
2018-04-11T04:20:57.014Z,12
2018-04-11T04:21:57.261Z,16
2018-04-11T04:22:56.504Z,20
2018-04-11T04:23:56.774Z,24
2018-04-11T04:24:56.993Z,24
2018-04-11T04:25:57.232Z,32
2018-04-11T04:26:56.986Z,36
2018-04-11T04:27:56.976Z,44
2018-04-11T04:28:56.977Z,48
2018-04-11T04:29:56.728Z,56
2018-04-11T04:30:56.952Z,64
2018-04-11T04:31:56.947Z,72
2018-04-11T04:32:57.208Z,80
2018-04-11T04:33:56.706Z,92
2018-04-11T04:34:57.193Z,104
2018-04-11T04:35:57.180Z,116
2018-04-11T04:36:56.931Z,128
2018-04-11T04:37:56.923Z,148
2018-04-11T04:38:56.904Z,164
2018-04-11T04:39:57.233Z,180
2018-04-11T04:40:57.231Z,200
2018-04-11T04:41:56.891Z,224
2018-04-11T04:42:57.140Z,244
2018-04-11T04:43:57.137Z,268
2018-04-11T04:44:56.621Z,296
2018-04-11T04:45:57.128Z,320
2018-04-11T04:46:56.870Z,352
2018-04-11T04:47:57.138Z,380
2018-04-11T04:48:56.844Z,416
2018-04-11T04:49:56.848Z,472
2018-04-11T04:50:56.584Z,484
2018-04-11T04:51:56.831Z,524
2018-04-11T04:52:57.095Z,560
2018-04-11T04:53:59.168Z,600
2018-04-11T04:54:56.816Z,644
2018-04-11T04:55:56.815Z,688
2018-04-11T04:56:57.061Z,732
2018-04-11T04:57:56.797Z,776
2018-04-11T04:58:56.803Z,824
2018-04-11T04:59:57.033Z,876
2018-04-11T05:00:57.042Z,920
2018-04-11T05:01:57.038Z,976
2018-04-11T05:02:57.031Z,1028
2018-04-11T05:03:57.009Z,1088
2018-04-11T05:04:57.015Z,1164
2018-04-11T05:05:57.022Z,1356
2018-04-11T05:06:56.745Z,1556
2018-04-11T05:07:57.047Z,1912
2018-04-11T05:08:56.730Z,2172
2018-04-11T05:09:56.730Z,2204
2018-04-11T05:10:56.486Z,2132
2018-04-11T05:11:57.061Z,2044
2018-04-11T05:12:56.711Z,2008
2018-04-11T05:13:56.478Z,2080
2018-04-11T05:14:56.953Z,2180
2018-04-11T05:15:56.947Z,2024
2018-04-11T05:16:56.214Z,1992
2018-04-11T05:17:56.698Z,2228
2018-04-11T05:18:56.704Z,2776
2018-04-11T05:19:56.951Z,3184
2018-04-11T05:20:56.940Z,3504
2018-04-11T05:21:56.970Z,3776
2018-04-11T05:22:56.909Z,3988
2018-04-11T05:23:57.711Z,4280
2018-04-11T05:24:56.678Z,4820
2018-04-11T05:25:56.893Z,5056
2018-04-11T05:26:56.901Z,4388
2018-04-11T05:27:56.895Z,4720
2018-04-11T05:28:56.681Z,4788
2018-04-11T05:29:56.648Z,4980
2018-04-11T05:30:56.408Z,5036
2018-04-11T05:31:56.869Z,5084
2018-04-11T05:32:56.408Z,5164
2018-04-11T05:33:56.882Z,4232
2018-04-11T05:34:56.619Z,5028
2018-04-11T05:35:56.637Z,5436
2018-04-11T05:36:56.624Z,6104
2018-04-11T05:37:56.646Z,6312
2018-04-11T05:38:56.865Z,6572
2018-04-11T05:39:56.878Z,6800
2018-04-11T05:40:56.421Z,7056
2018-04-11T05:41:56.873Z,7144
2018-04-11T05:42:56.876Z,3700
2018-04-11T05:43:56.683Z,3792
2018-04-11T05:44:56.620Z,6916
2018-04-11T05:45:56.611Z,7040
2018-04-11T05:46:56.373Z,7180
2018-04-11T05:47:56.901Z,7144
2018-04-11T05:48:56.618Z,7236
2018-04-11T05:49:56.841Z,7184
2018-04-11T05:50:56.606Z,7040
2018-04-11T05:51:56.593Z,6688
2018-04-11T05:52:56.611Z,6056
2018-04-11T05:53:59.001Z,5916
2018-04-11T05:54:56.360Z,5708
2018-04-11T05:55:56.846Z,5468
2018-04-11T05:56:56.871Z,5168
2018-04-11T05:57:56.094Z,5036
2018-04-11T05:58:56.348Z,4936
2018-04-11T05:59:56.830Z,4828
2018-04-11T06:00:56.920Z,4832
2018-04-11T06:01:56.594Z,4780
2018-04-11T06:02:56.841Z,5448
2018-04-11T06:03:56.843Z,4664
2018-04-11T06:04:56.843Z,4728
2018-04-11T06:05:56.389Z,4812
2018-04-11T06:06:56.349Z,4884
2018-04-11T06:07:56.582Z,4952
2018-04-11T06:08:56.593Z,4972
2018-04-11T06:09:58.464Z,5008
2018-04-11T06:10:56.571Z,4980
2018-04-11T06:11:56.337Z,4992
2018-04-11T06:12:56.587Z,4996
2018-04-11T06:22:14.929Z,6608
2018-04-11T06:23:15.416Z,6888
2018-04-11T06:24:15.154Z,7228
2018-04-11T06:25:17.237Z,7624
2018-04-11T06:26:15.143Z,8060
2018-04-11T06:27:15.388Z,8684
2018-04-11T06:28:15.569Z,9380
2018-04-11T06:29:15.386Z,9924
2018-04-11T06:30:16.949Z,10332
2018-04-11T06:31:15.370Z,10660
2018-04-11T06:32:15.375Z,10908
2018-04-11T06:33:15.112Z,11056
2018-04-11T06:34:15.365Z,11216
2018-04-11T06:35:17.053Z,11260
2018-04-11T06:36:15.397Z,11320
2018-04-11T06:37:15.363Z,11388
2018-04-11T06:38:15.110Z,11440
2018-04-11T06:39:14.910Z,11488
2018-04-11T06:40:17.097Z,11508
2018-04-11T06:41:15.108Z,11560
2018-04-11T06:42:15.424Z,11612
2018-04-11T06:43:15.134Z,11608
2018-04-11T06:44:15.132Z,11648
2018-04-11T06:45:17.164Z,11680
2018-04-11T06:46:15.229Z,11772
2018-04-11T06:47:15.169Z,11780
2018-04-11T06:48:15.125Z,11848
2018-04-11T06:49:15.128Z,11972
2018-04-11T06:50:17.038Z,12020
2018-04-11T06:51:15.142Z,12056
2018-04-11T06:52:15.393Z,12192
2018-04-11T06:53:15.142Z,12192
2018-04-11T06:54:15.151Z,12192
2018-04-11T06:55:17.381Z,12248
2018-04-11T06:56:15.153Z,12312
2018-04-11T06:57:16.618Z,12380
2018-04-11T06:58:15.181Z,12384
2018-04-11T06:59:15.415Z,12356
2018-04-11T07:00:17.475Z,12396
2018-04-11T07:01:15.187Z,12500
2018-04-11T07:02:15.438Z,12524
2018-04-11T07:03:15.431Z,12568
2018-04-11T07:04:15.435Z,12536
2018-04-11T07:05:17.088Z,12616
2018-04-11T07:06:15.441Z,12612
2018-04-11T07:07:15.214Z,12640
2018-04-11T07:08:15.454Z,12660
2018-04-11T07:09:15.460Z,12660
2018-04-11T07:10:16.875Z,12676
2018-04-11T07:11:15.466Z,12668
2018-04-11T07:12:15.785Z,12644
2018-04-11T07:13:15.490Z,12316
2018-04-11T07:14:15.601Z,11636
2018-04-11T07:15:16.734Z,10880
2018-04-11T07:16:15.527Z,10560
2018-04-11T07:17:15.494Z,10448
2018-04-11T07:18:15.260Z,10028
2018-04-11T07:19:15.502Z,9704
2018-04-11T07:20:16.664Z,9672
2018-04-11T07:21:15.530Z,9588
2018-04-11T07:22:15.275Z,9208
2018-04-11T07:23:15.522Z,8708
2018-04-11T07:24:15.282Z,8272
2018-04-11T07:25:17.293Z,8056
2018-04-11T07:26:15.544Z,8004
2018-04-11T07:27:19.565Z,8076
2018-04-11T07:28:15.567Z,8844
2018-04-11T07:29:15.044Z,10112
2018-04-11T07:30:17.667Z,11000
2018-04-11T07:31:15.549Z,11352
2018-04-11T07:32:15.568Z,11440
2018-04-11T07:33:15.577Z,11440
2018-04-11T07:34:15.328Z,11408
2018-04-11T07:35:16.913Z,11464
2018-04-11T07:36:15.573Z,11468
2018-04-11T07:37:15.318Z,11404
2018-04-11T07:38:15.075Z,11376
2018-04-11T07:39:15.578Z,11332
2018-04-11T07:40:16.783Z,11304
2018-04-11T07:41:15.589Z,11264
2018-04-11T07:42:15.594Z,11172
2018-04-11T07:43:15.618Z,11032
2018-04-11T07:44:15.350Z,10724
2018-04-11T07:45:17.243Z,11240
2018-04-11T07:46:15.595Z,10256
2018-04-11T07:47:15.372Z,10096
2018-04-11T07:48:15.645Z,9752
2018-04-11T07:49:15.387Z,9156
2018-04-11T07:50:16.860Z,8580
2018-04-11T07:51:15.383Z,8420
2018-04-11T07:52:15.641Z,8220
2018-04-11T07:53:15.400Z,8148
2018-04-11T07:54:15.646Z,8144
2018-04-11T07:55:16.580Z,8100
2018-04-11T07:56:15.404Z,8084
2018-04-11T07:57:17.463Z,8248
2018-04-11T07:58:15.416Z,7976
2018-04-11T07:59:15.414Z,7984
2018-04-11T08:00:17.446Z,7896
2018-04-11T08:01:15.421Z,7888
2018-04-11T08:02:15.425Z,9312
2018-04-11T08:03:15.931Z,9544
2018-04-11T08:04:15.429Z,9600
2018-04-11T08:05:17.303Z,9760
2018-04-11T08:06:15.444Z,8552
2018-04-11T08:07:15.197Z,10456
2018-04-11T08:08:15.446Z,10520
2018-04-11T08:09:15.710Z,10464
2018-04-11T08:10:16.170Z,10424
2018-04-11T08:11:15.702Z,9844
2018-04-11T08:12:15.454Z,10212
2018-04-11T08:13:15.699Z,10228
2018-04-11T08:14:15.723Z,10212
2018-04-11T08:15:17.169Z,10180
2018-04-11T08:16:15.482Z,10104
2018-04-11T08:17:15.483Z,10128
2018-04-11T08:18:15.542Z,10092
2018-04-11T08:19:15.250Z,10040
2018-04-11T08:20:17.457Z,10008
2018-04-11T08:21:15.505Z,9948
2018-04-11T08:22:15.498Z,9908
2018-04-11T08:23:15.902Z,9852
2018-04-11T08:24:15.757Z,9780
2018-04-11T08:25:16.822Z,9696
2018-04-11T08:26:15.782Z,9612
2018-04-11T08:27:15.270Z,9532
2018-04-11T08:28:15.278Z,9284
2018-04-11T08:29:15.787Z,9256
2018-04-11T08:30:17.575Z,8600
2018-04-11T08:31:15.548Z,9288
2018-04-11T08:32:15.797Z,9264
2018-04-11T08:33:15.562Z,9232
2018-04-11T08:34:15.563Z,9220
2018-04-11T08:35:17.629Z,9212
2018-04-11T08:36:15.362Z,9148
2018-04-11T08:37:15.342Z,9128
2018-04-11T08:38:15.828Z,9112
2018-04-11T08:39:15.836Z,9080
2018-04-11T08:40:17.588Z,9048
2018-04-11T08:41:15.848Z,9028
2018-04-11T08:42:15.852Z,9008
2018-04-11T08:43:15.603Z,9004
2018-04-11T08:44:15.822Z,8944
2018-04-11T08:45:17.989Z,8920
2018-04-11T08:46:15.865Z,8920
2018-04-11T08:47:15.887Z,8912
2018-04-11T08:48:15.370Z,8908
2018-04-11T08:49:15.477Z,8916
2018-04-11T08:50:17.560Z,8904
2018-04-11T08:51:15.916Z,8920
2018-04-11T08:52:15.643Z,8928
2018-04-11T08:53:15.634Z,8956
2018-04-11T08:54:15.647Z,8984
2018-04-11T08:55:17.694Z,8988
2018-04-11T08:56:15.665Z,9008
2018-04-11T08:57:15.900Z,9004
2018-04-11T08:58:15.647Z,9004
2018-04-11T08:59:15.896Z,9000
2018-04-11T09:00:17.437Z,9004
2018-04-11T09:01:15.436Z,9032
2018-04-11T09:02:15.658Z,9072
2018-04-11T09:03:15.914Z,9092
2018-04-11T09:04:15.436Z,9104
2018-04-11T09:05:17.846Z,9112
2018-04-11T09:06:15.687Z,9104
2018-04-11T09:07:15.414Z,9120
2018-04-11T09:08:15.675Z,9136
2018-04-11T09:09:15.438Z,9156
2018-04-11T09:10:16.725Z,9160
2018-04-11T09:11:15.423Z,9192
2018-04-11T09:12:15.441Z,9188
2018-04-11T09:13:19.370Z,9192
2018-04-11T09:14:15.442Z,9164
2018-04-11T09:15:17.634Z,9144
2018-04-11T09:16:15.718Z,9136
2018-04-11T09:17:16.003Z,9112
2018-04-11T09:18:15.690Z,9100
2018-04-11T09:19:15.679Z,9064
2018-04-11T09:20:17.217Z,9060
2018-04-11T09:21:15.694Z,9040
2018-04-11T09:22:15.937Z,9008
2018-04-11T09:23:15.709Z,8988
2018-04-11T09:24:15.945Z,8948
2018-04-11T09:25:16.745Z,8924
2018-04-11T09:26:15.728Z,8896
2018-04-11T09:27:15.450Z,8868
2018-04-11T09:28:16.480Z,8816
2018-04-11T09:29:15.684Z,8792
2018-04-11T09:30:17.448Z,8800
2018-04-11T09:31:15.515Z,8736
2018-04-11T09:32:15.689Z,8688
2018-04-11T09:33:16.089Z,8660
2018-04-11T09:34:15.938Z,8632
2018-04-11T09:35:17.380Z,8600
2018-04-11T09:36:15.704Z,8572
2018-04-11T09:37:15.697Z,8524
2018-04-11T09:38:15.757Z,8468
2018-04-11T09:39:15.693Z,8412
2018-04-11T09:40:17.773Z,8364
2018-04-11T09:41:15.457Z,8308
2018-04-11T09:42:15.771Z,8284
2018-04-11T09:43:15.695Z,8248
2018-04-11T09:44:15.971Z,8204
2018-04-11T09:45:17.667Z,8132
2018-04-11T09:46:15.729Z,8120
2018-04-11T09:47:15.995Z,8068
2018-04-11T09:48:15.966Z,8044
2018-04-11T09:49:15.958Z,7996
2018-04-11T09:50:17.222Z,7956
2018-04-11T09:51:15.772Z,7920
2018-04-11T09:52:15.959Z,7872
2018-04-11T09:53:15.954Z,7848
2018-04-11T09:54:15.961Z,7844
2018-04-11T09:55:17.526Z,7800
2018-04-11T09:56:15.705Z,7776
2018-04-11T09:57:15.960Z,7732
2018-04-11T09:58:16.034Z,7696
2018-04-11T09:59:15.504Z,7652
2018-04-11T10:00:17.570Z,7624
2018-04-11T10:01:15.710Z,7604
2018-04-11T10:02:15.964Z,7584
2018-04-11T10:03:15.733Z,7548
2018-04-11T10:04:15.473Z,7532
2018-04-11T10:05:16.689Z,7508
2018-04-11T10:06:15.761Z,7496
2018-04-11T10:07:15.755Z,7492
2018-04-11T10:08:15.770Z,7468
2018-04-11T10:09:15.980Z,7452
2018-04-11T10:10:16.691Z,7436
2018-04-11T10:11:15.984Z,7420
2018-04-11T10:12:15.973Z,7428
2018-04-11T10:13:16.234Z,7428
2018-04-11T10:14:15.731Z,7420
2018-04-11T10:15:17.542Z,7392
2018-04-11T10:16:15.985Z,7380
2018-04-11T10:17:15.980Z,7360
2018-04-11T10:18:15.981Z,7356
2018-04-11T10:19:15.785Z,7336
2018-04-11T10:20:17.801Z,7320
2018-04-11T10:21:15.848Z,7316
2018-04-11T10:22:15.985Z,7308
2018-04-11T10:53:00.178Z,6688
2018-04-11T10:54:00.165Z,6652
2018-04-11T10:55:00.187Z,6628
2018-04-11T10:55:59.702Z,6600
2018-04-11T10:56:59.645Z,6584
2018-04-11T10:57:59.635Z,6556
2018-04-11T10:59:00.138Z,6504
2018-04-11T11:00:00.135Z,6516
2018-04-11T11:00:59.906Z,6496
2018-04-11T11:01:59.376Z,6480
2018-04-11T11:02:59.893Z,6468
2018-04-11T11:04:00.126Z,6440
2018-04-11T11:04:59.624Z,6424
2018-04-11T11:05:59.875Z,6392
2018-04-11T11:06:59.874Z,6364
2018-04-11T11:08:00.126Z,6356
2018-04-11T11:08:59.883Z,6348
2018-04-11T11:10:00.137Z,6328
2018-04-11T11:10:59.875Z,6312
2018-04-11T11:12:00.167Z,6296
2018-04-11T11:13:00.127Z,6276
2018-04-11T11:14:00.131Z,6260
2018-04-11T11:15:00.142Z,6248
2018-04-11T11:15:59.882Z,6228
2018-04-11T11:17:00.134Z,6204
2018-04-11T11:18:00.141Z,6196
2018-04-11T11:19:00.134Z,6188
2018-04-11T11:20:00.132Z,6172
2018-04-11T11:20:59.632Z,6164
2018-04-11T11:21:59.631Z,6160
2018-04-11T11:23:00.780Z,6148
2018-04-11T11:24:00.134Z,6136
2018-04-11T11:24:59.903Z,6124
2018-04-11T11:26:00.146Z,6108
2018-04-11T11:27:00.131Z,6108
2018-04-11T11:27:59.912Z,6116
2018-04-11T11:28:59.883Z,6132
2018-04-11T11:29:59.922Z,6108
2018-04-11T11:31:00.136Z,6100
2018-04-11T11:32:00.138Z,6096
2018-04-11T11:33:00.136Z,6088
2018-04-11T11:34:00.152Z,6064
2018-04-11T11:34:59.887Z,6052
2018-04-11T11:36:00.142Z,6040
2018-04-11T11:37:00.137Z,6012
2018-04-11T11:38:01.499Z,6028
2018-04-11T11:38:59.896Z,6000
2018-04-11T11:39:59.641Z,5988
2018-04-11T11:40:59.898Z,5988
2018-04-11T11:42:00.174Z,5988
2018-04-11T11:42:59.645Z,5980
2018-04-11T11:43:59.899Z,5984
2018-04-11T11:45:00.168Z,5984
2018-04-11T11:46:00.242Z,6004
2018-04-11T11:46:59.900Z,5984
2018-04-11T11:48:00.192Z,5972
2018-04-11T11:49:00.152Z,5968
2018-04-11T11:49:59.899Z,5968
2018-04-11T11:50:59.932Z,5956
2018-04-11T11:52:00.159Z,5956
2018-04-11T11:53:00.949Z,5944
2018-04-11T11:54:00.152Z,5940
2018-04-11T11:54:59.903Z,5936
2018-04-11T11:55:59.676Z,5924
2018-04-11T11:57:00.175Z,5912
2018-04-11T11:58:00.160Z,5900
2018-04-11T11:58:59.667Z,5888
2018-04-11T12:00:00.163Z,5864
2018-04-11T12:00:59.941Z,5872
2018-04-11T12:01:59.671Z,5848
2018-04-11T12:03:00.170Z,5840
2018-04-11T12:03:59.675Z,5816
2018-04-11T12:04:59.509Z,5804
2018-04-11T12:05:59.935Z,5788
2018-04-11T12:07:00.185Z,5776
2018-04-11T12:08:00.919Z,5748
2018-04-11T12:08:59.926Z,5732
2018-04-11T12:10:00.183Z,5704
2018-04-11T12:11:00.243Z,5680
2018-04-11T12:12:00.408Z,5692
2018-04-11T12:13:00.171Z,5684
2018-04-11T12:13:59.681Z,5668
2018-04-11T12:14:59.924Z,5684
2018-04-11T12:15:59.679Z,5680
2018-04-11T12:17:00.180Z,5656
2018-04-11T12:18:00.182Z,5644
2018-04-11T12:19:00.481Z,5628
2018-04-11T12:19:59.934Z,5640
2018-04-11T12:20:59.693Z,5620
2018-04-11T12:21:59.945Z,5620
2018-04-11T12:23:00.229Z,5600
2018-04-11T12:23:59.948Z,5588
2018-04-11T12:25:00.190Z,5556
2018-04-11T12:25:59.958Z,5536
2018-04-11T12:27:00.208Z,5496
2018-04-11T12:27:59.981Z,5488
2018-04-11T12:28:59.692Z,5480
2018-04-11T12:29:59.951Z,5500
2018-04-11T12:30:59.957Z,5508
2018-04-11T12:32:00.243Z,5508
2018-04-11T12:32:59.972Z,5528
2018-04-11T12:33:59.967Z,5544
2018-04-11T12:35:00.218Z,5524
2018-04-11T12:35:59.963Z,5504
2018-04-11T12:36:59.980Z,5456
2018-04-11T12:38:00.207Z,5464
2018-04-11T12:39:01.509Z,5488
2018-04-11T12:39:59.975Z,5508
2018-04-11T12:40:59.990Z,5512
2018-04-11T12:42:00.216Z,5524
2018-04-11T12:43:00.221Z,5524
2018-04-11T12:43:59.729Z,5532
2018-04-11T12:44:59.978Z,5552
2018-04-11T12:46:00.226Z,5584
2018-04-11T12:46:59.731Z,5616
2018-04-11T12:47:59.995Z,5644
2018-04-11T12:49:00.226Z,5644
2018-04-11T12:49:59.987Z,5644
2018-04-11T12:51:00.230Z,5672
2018-04-11T12:52:00.228Z,5700
2018-04-11T12:52:59.735Z,5752
2018-04-11T12:54:00.281Z,5804
2018-04-11T12:55:00.226Z,5852
2018-04-11T12:55:59.996Z,5920
2018-04-11T12:57:00.246Z,5984
2018-04-11T12:58:00.246Z,6048
2018-04-11T12:59:00.029Z,6140
2018-04-11T13:00:00.262Z,6268
2018-04-11T13:01:00.059Z,6344
2018-04-11T13:02:00.259Z,6408
2018-04-11T13:03:00.243Z,6436
2018-04-11T13:03:59.741Z,6452
2018-04-11T13:05:00.253Z,6480
2018-04-11T13:06:00.037Z,6476
2018-04-11T13:06:59.759Z,6504
2018-04-11T13:08:00.264Z,6544
2018-04-11T13:09:06.260Z,6556
2018-04-11T13:10:00.032Z,6608
2018-04-11T13:11:00.032Z,6668
2018-04-11T13:12:00.293Z,6608
2018-04-11T13:12:59.766Z,6728
2018-04-11T13:14:00.299Z,6732
2018-04-11T13:15:00.274Z,6664
2018-04-11T13:15:59.835Z,6568
2018-04-11T13:17:00.310Z,6576
2018-04-11T13:17:59.767Z,6504
2018-04-11T13:19:00.037Z,6424
2018-04-11T13:20:00.284Z,6384
2018-04-11T13:21:00.037Z,6388
2018-04-11T13:22:00.037Z,6432
2018-04-11T13:22:59.776Z,6472
2018-04-11T13:23:59.782Z,6424
2018-04-11T13:25:00.359Z,6360
2018-04-11T13:26:00.042Z,6292
2018-04-11T13:27:00.052Z,6216
2018-04-11T13:28:00.294Z,6172
2018-04-11T13:29:00.300Z,6184
2018-04-11T13:30:00.055Z,6204
2018-04-11T13:31:00.294Z,6188
2018-04-11T13:31:59.546Z,6196
2018-04-11T13:33:00.304Z,6220
2018-04-11T13:34:00.310Z,6268
2018-04-11T13:35:00.302Z,6280
2018-04-11T13:36:00.302Z,6292
2018-04-11T13:36:59.803Z,6264
2018-04-11T13:38:00.056Z,6192
2018-04-11T13:39:00.080Z,6188
2018-04-11T13:40:01.441Z,5712
2018-04-11T13:41:00.136Z,5004
2018-04-11T13:41:59.813Z,5024
2018-04-11T13:43:00.340Z,5088
2018-04-11T13:44:00.090Z,5188
2018-04-11T13:45:00.162Z,5332
2018-04-11T13:46:00.328Z,5644
2018-04-11T13:47:00.097Z,5364
2018-04-11T13:48:00.330Z,5336
2018-04-11T13:49:00.324Z,5368
2018-04-11T13:50:00.349Z,5396
2018-04-11T13:51:00.341Z,5648
2018-04-11T13:51:59.834Z,6536
2018-04-11T13:53:00.338Z,6552
2018-04-11T13:54:00.361Z,7608
2018-04-11T13:55:03.057Z,7352
2018-04-11T13:56:00.099Z,7028
2018-04-11T13:57:00.345Z,6620
2018-04-11T13:58:00.097Z,6640
2018-04-11T13:59:00.097Z,6676
2018-04-11T14:00:00.104Z,6804
2018-04-11T14:01:00.393Z,7504
2018-04-11T14:02:00.101Z,8208
2018-04-11T14:03:00.119Z,7408
2018-04-11T14:04:00.117Z,8384
2018-04-11T14:05:00.376Z,8656
2018-04-11T14:05:59.882Z,7680
2018-04-11T14:07:00.138Z,7964
2018-04-11T14:08:00.413Z,7644
2018-04-11T14:08:59.873Z,7580
2018-04-11T14:10:02.831Z,7544
2018-04-11T14:11:00.209Z,7612
2018-04-11T14:12:00.132Z,7880
2018-04-11T14:12:59.918Z,8784
2018-04-11T14:14:00.142Z,8612
2018-04-11T14:15:00.149Z,8320
2018-04-11T14:16:00.147Z,7880
2018-04-11T14:16:59.905Z,7608
2018-04-11T14:18:00.416Z,7268
2018-04-11T14:19:00.174Z,7000
2018-04-11T14:19:59.915Z,6980
2018-04-11T14:21:00.167Z,6240
2018-04-11T14:22:00.405Z,6756
2018-04-11T14:23:00.410Z,6228
2018-04-11T14:24:00.412Z,6420
2018-04-11T14:25:00.450Z,6716
2018-04-11T14:26:00.171Z,7280
2018-04-11T14:27:00.415Z,7376